Terminal Aerodrome Forecast
Issued by NWS Pueblo, CO

Home | Current Version | Previous Version | Text Only | Print | Product List | Glossary On
Versions: 1 2 3 4 5 6 7 8 9 10 11 12 13 14 15 16 17 18 19 20 21 22 23 24 25 26 27 28 29 30 31 32
000
FTUS45 KPUB 180520
TAFCOS
TAF
KCOS 180520Z 1806/1906 35006KT 6SM -SHSN SCT030 BKN060
      TEMPO 1806/1808 3SM -SHSN BKN030
     FM181000 VRB06KT 3SM BR BKN020
     FM181800 16008KT P6SM SCT030 BKN090
     FM190100 13006KT P6SM BKN030=

USA.gov is the U.S. government's official web portal to all federal, state and local government web resources and services.